KGSO/GSO METAR and TAF weather

Enter ICAO airport designator
Station Type Date Time Source
KGSO METAR 2020/07/11 23:54 UTC NOAA

KGSO 112354Z 32005KT 10SM FEW070 BKN080 29/18 A2984 RMK AO2 SLP094 T02890178 10322 20289 53007


Station Type Date Time Source
KGSO Decoded METAR 2020/07/11 23:54 UTC NOAA

PIEDMONT TRIAD INTERNATIONAL AIRPORT , NC, United States (KGSO) 36-06N 079-57W 275M
Jul 11, 2020 - 07:54 PM EDT / 2020.07.11 2354 UTC
Wind: from the NW (320 degrees) at 6 MPH (5 KT):0
Visibility: 10 mile(s):0
Sky conditions: mostly cloudy
Temperature: 84.0 F (28.9 C)
Dew Point: 64.0 F (17.8 C)
Relative Humidity: 51%
Pressure (altimeter): 29.84 in. Hg (1010 hPa)
Pressure tendency: 0.02 inches (0.7 hPa) higher than three hours ago
ob: KGSO 112354Z 32005KT 10SM FEW070 BKN080 29/18 A2984 RMK AO2 SLP094 T02890178 10322 20289 53007
cycle: 0

Station Type Date Time Source
KGSO TAF 2020/07/11 18:22 UTC NOAA

TAF KGSO 111720Z 1118/1218 30008KT P6SM SCT050

Example: see airport list